sensor_id;sensor_type;location;lat;lon;timestamp;P1;durP1;ratioP1;P2;durP2;ratioP2
12908;SDS011;6522;49.622;6.126;2023-06-04T00:00:32;17.65;;;16.65;;
12908;SDS011;6522;49.622;6.126;2023-06-04T00:03:20;19.35;;;18.35;;
12908;SDS011;6522;49.622;6.126;2023-06-04T00:06:07;20.00;;;18.90;;
12908;SDS011;6522;49.622;6.126;2023-06-04T00:08:53;19.87;;;18.87;;
12908;SDS011;6522;49.622;6.126;2023-06-04T00:11:40;19.05;;;17.85;;
12908;SDS011;6522;49.622;6.126;2023-06-04T00:14:27;19.90;;;19.00;;
12908;SDS011;6522;49.622;6.126;2023-06-04T00:17:13;20.75;;;19.20;;
12908;SDS011;6522;49.622;6.126;2023-06-04T00:20:01;18.87;;;17.98;;
12908;SDS011;6522;49.622;6.126;2023-06-04T00:22:47;19.10;;;18.20;;
12908;SDS011;6522;49.622;6.126;2023-06-04T00:25:34;19.10;;;18.20;;
12908;SDS011;6522;49.622;6.126;2023-06-04T00:28:21;19.80;;;18.60;;
12908;SDS011;6522;49.622;6.126;2023-06-04T00:31:08;19.15;;;18.05;;
12908;SDS011;6522;49.622;6.126;2023-06-04T00:33:54;19.12;;;18.23;;
12908;SDS011;6522;49.622;6.126;2023-06-04T00:36:41;20.02;;;19.02;;
12908;SDS011;6522;49.622;6.126;2023-06-04T00:39:28;16.45;;;15.60;;
12908;SDS011;6522;49.622;6.126;2023-06-04T00:42:15;18.70;;;17.70;;
12908;SDS011;6522;49.622;6.126;2023-06-04T00:45:01;18.70;;;17.80;;
12908;SDS011;6522;49.622;6.126;2023-06-04T00:47:48;19.08;;;18.08;;
12908;SDS011;6522;49.622;6.126;2023-06-04T00:50:35;18.80;;;18.00;;
12908;SDS011;6522;49.622;6.126;2023-06-04T00:53:22;19.62;;;18.48;;
12908;SDS011;6522;49.622;6.126;2023-06-04T00:56:08;19.10;;;18.15;;
12908;SDS011;6522;49.622;6.126;2023-06-04T00:58:55;19.30;;;18.20;;
12908;SDS011;6522;49.622;6.126;2023-06-04T01:01:46;18.00;;;17.17;;
12908;SDS011;6522;49.622;6.126;2023-06-04T01:04:40;19.62;;;18.42;;
12908;SDS011;6522;49.622;6.126;2023-06-04T01:07:24;19.80;;;18.70;;
12908;SDS011;6522;49.622;6.126;2023-06-04T01:10:10;18.92;;;18.02;;
12908;SDS011;6522;49.622;6.126;2023-06-04T01:12:57;19.60;;;18.50;;
12908;SDS011;6522;49.622;6.126;2023-06-04T01:15:44;19.27;;;18.35;;
12908;SDS011;6522;49.622;6.126;2023-06-04T01:18:31;18.95;;;18.05;;
12908;SDS011;6522;49.622;6.126;2023-06-04T01:21:18;19.23;;;18.33;;
12908;SDS011;6522;49.622;6.126;2023-06-04T01:24:05;19.65;;;18.70;;
12908;SDS011;6522;49.622;6.126;2023-06-04T01:26:52;19.77;;;18.25;;
12908;SDS011;6522;49.622;6.126;2023-06-04T01:29:39;19.02;;;18.08;;
12908;SDS011;6522;49.622;6.126;2023-06-04T01:32:26;18.30;;;17.50;;
12908;SDS011;6522;49.622;6.126;2023-06-04T01:35:13;19.15;;;18.25;;
12908;SDS011;6522;49.622;6.126;2023-06-04T01:37:59;19.65;;;18.75;;
12908;SDS011;6522;49.622;6.126;2023-06-04T01:40:46;18.73;;;17.73;;
12908;SDS011;6522;49.622;6.126;2023-06-04T01:43:33;18.60;;;17.70;;
12908;SDS011;6522;49.622;6.126;2023-06-04T01:46:20;19.45;;;18.55;;
12908;SDS011;6522;49.622;6.126;2023-06-04T01:49:06;17.95;;;17.15;;
12908;SDS011;6522;49.622;6.126;2023-06-04T01:51:53;18.55;;;17.65;;
12908;SDS011;6522;49.622;6.126;2023-06-04T01:54:40;19.20;;;18.20;;
12908;SDS011;6522;49.622;6.126;2023-06-04T01:57:27;18.90;;;18.00;;
12908;SDS011;6522;49.622;6.126;2023-06-04T02:00:14;19.15;;;18.05;;
12908;SDS011;6522;49.622;6.126;2023-06-04T02:03:00;19.75;;;18.85;;
12908;SDS011;6522;49.622;6.126;2023-06-04T02:05:47;18.50;;;17.70;;
12908;SDS011;6522;49.622;6.126;2023-06-04T02:08:34;18.05;;;17.25;;
12908;SDS011;6522;49.622;6.126;2023-06-04T02:11:20;18.55;;;17.67;;
12908;SDS011;6522;49.622;6.126;2023-06-04T02:14:07;19.75;;;18.85;;
12908;SDS011;6522;49.622;6.126;2023-06-04T02:16:54;19.08;;;18.17;;
12908;SDS011;6522;49.622;6.126;2023-06-04T02:19:41;18.25;;;17.45;;
12908;SDS011;6522;49.622;6.126;2023-06-04T02:22:27;19.52;;;18.62;;
12908;SDS011;6522;49.622;6.126;2023-06-04T02:25:14;19.33;;;18.42;;
12908;SDS011;6522;49.622;6.126;2023-06-04T02:28:00;18.42;;;17.48;;
12908;SDS011;6522;49.622;6.126;2023-06-04T02:30:47;18.65;;;17.85;;
12908;SDS011;6522;49.622;6.126;2023-06-04T02:33:34;16.90;;;15.90;;
12908;SDS011;6522;49.622;6.126;2023-06-04T02:36:20;18.30;;;17.50;;
12908;SDS011;6522;49.622;6.126;2023-06-04T02:39:07;16.60;;;15.57;;
12908;SDS011;6522;49.622;6.126;2023-06-04T02:41:54;18.73;;;17.83;;
12908;SDS011;6522;49.622;6.126;2023-06-04T02:44:40;18.92;;;17.92;;
12908;SDS011;6522;49.622;6.126;2023-06-04T02:47:27;18.60;;;17.70;;
12908;SDS011;6522;49.622;6.126;2023-06-04T02:50:14;19.05;;;18.15;;
12908;SDS011;6522;49.622;6.126;2023-06-04T02:53:01;17.80;;;17.00;;
12908;SDS011;6522;49.622;6.126;2023-06-04T02:55:48;19.77;;;18.77;;
12908;SDS011;6522;49.622;6.126;2023-06-04T02:58:34;19.77;;;18.77;;
12908;SDS011;6522;49.622;6.126;2023-06-04T03:01:24;18.85;;;17.73;;
12908;SDS011;6522;49.622;6.126;2023-06-04T03:04:08;18.65;;;17.65;;
12908;SDS011;6522;49.622;6.126;2023-06-04T03:06:55;18.83;;;17.70;;
12908;SDS011;6522;49.622;6.126;2023-06-04T03:09:42;18.45;;;17.60;;
12908;SDS011;6522;49.622;6.126;2023-06-04T03:12:29;18.92;;;18.02;;
12908;SDS011;6522;49.622;6.126;2023-06-04T03:15:15;19.08;;;18.17;;
12908;SDS011;6522;49.622;6.126;2023-06-04T03:18:03;18.67;;;17.77;;
12908;SDS011;6522;49.622;6.126;2023-06-04T03:20:49;18.77;;;17.80;;
12908;SDS011;6522;49.622;6.126;2023-06-04T03:23:36;17.12;;;16.23;;
12908;SDS011;6522;49.622;6.126;2023-06-04T03:26:23;19.00;;;18.00;;
12908;SDS011;6522;49.622;6.126;2023-06-04T03:29:10;19.98;;;18.98;;
12908;SDS011;6522;49.622;6.126;2023-06-04T03:31:56;19.20;;;18.30;;
12908;SDS011;6522;49.622;6.126;2023-06-04T03:34:43;18.55;;;17.75;;
12908;SDS011;6522;49.622;6.126;2023-06-04T03:37:30;16.52;;;15.68;;
12908;SDS011;6522;49.622;6.126;2023-06-04T03:40:17;18.95;;;18.15;;
12908;SDS011;6522;49.622;6.126;2023-06-04T03:43:04;18.98;;;18.08;;
12908;SDS011;6522;49.622;6.126;2023-06-04T03:45:50;19.25;;;18.05;;
12908;SDS011;6522;49.622;6.126;2023-06-04T03:48:38;20.30;;;18.95;;
12908;SDS011;6522;49.622;6.126;2023-06-04T03:51:25;19.73;;;18.70;;
12908;SDS011;6522;49.622;6.126;2023-06-04T03:54:12;20.40;;;19.30;;
12908;SDS011;6522;49.622;6.126;2023-06-04T03:56:59;19.60;;;18.70;;
12908;SDS011;6522;49.622;6.126;2023-06-04T03:59:45;19.75;;;18.85;;
12908;SDS011;6522;49.622;6.126;2023-06-04T04:02:32;19.27;;;18.35;;
12908;SDS011;6522;49.622;6.126;2023-06-04T04:05:19;20.08;;;19.05;;
12908;SDS011;6522;49.622;6.126;2023-06-04T04:08:05;19.65;;;18.75;;
12908;SDS011;6522;49.622;6.126;2023-06-04T04:10:52;19.62;;;18.70;;
12908;SDS011;6522;49.622;6.126;2023-06-04T04:13:39;20.45;;;19.55;;
12908;SDS011;6522;49.622;6.126;2023-06-04T04:16:25;20.95;;;19.50;;
12908;SDS011;6522;49.622;6.126;2023-06-04T04:19:12;19.70;;;18.60;;
12908;SDS011;6522;49.622;6.126;2023-06-04T04:21:58;19.65;;;18.75;;
12908;SDS011;6522;49.622;6.126;2023-06-04T04:24:45;17.80;;;16.80;;
12908;SDS011;6522;49.622;6.126;2023-06-04T04:27:32;19.40;;;18.50;;
12908;SDS011;6522;49.622;6.126;2023-06-04T04:30:19;19.90;;;18.83;;
12908;SDS011;6522;49.622;6.126;2023-06-04T04:33:06;17.80;;;16.90;;
12908;SDS011;6522;49.622;6.126;2023-06-04T04:35:53;19.58;;;18.67;;
12908;SDS011;6522;49.622;6.126;2023-06-04T04:38:39;16.92;;;16.10;;
12908;SDS011;6522;49.622;6.126;2023-06-04T04:41:26;19.73;;;18.80;;
12908;SDS011;6522;49.622;6.126;2023-06-04T04:44:13;19.08;;;18.10;;
12908;SDS011;6522;49.622;6.126;2023-06-04T04:47:00;19.00;;;18.20;;
12908;SDS011;6522;49.622;6.126;2023-06-04T04:49:46;20.58;;;19.67;;
12908;SDS011;6522;49.622;6.126;2023-06-04T04:52:33;20.52;;;19.50;;
12908;SDS011;6522;49.622;6.126;2023-06-04T04:55:20;20.10;;;18.50;;
12908;SDS011;6522;49.622;6.126;2023-06-04T04:58:07;19.10;;;18.10;;
12908;SDS011;6522;49.622;6.126;2023-06-04T05:00:53;19.20;;;18.20;;
12908;SDS011;6522;49.622;6.126;2023-06-04T05:03:40;20.37;;;18.40;;
12908;SDS011;6522;49.622;6.126;2023-06-04T05:06:27;19.00;;;18.10;;
12908;SDS011;6522;49.622;6.126;2023-06-04T05:09:14;20.48;;;19.27;;
12908;SDS011;6522;49.622;6.126;2023-06-04T05:12:01;20.40;;;19.40;;
12908;SDS011;6522;49.622;6.126;2023-06-04T05:14:47;20.15;;;18.50;;
12908;SDS011;6522;49.622;6.126;2023-06-04T05:17:34;19.62;;;18.20;;
12908;SDS011;6522;49.622;6.126;2023-06-04T05:20:21;19.50;;;18.50;;
12908;SDS011;6522;49.622;6.126;2023-06-04T05:23:08;19.90;;;18.30;;
12908;SDS011;6522;49.622;6.126;2023-06-04T05:25:55;19.40;;;18.52;;
12908;SDS011;6522;49.622;6.126;2023-06-04T05:28:41;20.33;;;19.10;;
12908;SDS011;6522;49.622;6.126;2023-06-04T05:31:28;19.60;;;18.55;;
12908;SDS011;6522;49.622;6.126;2023-06-04T05:34:15;19.02;;;18.12;;
12908;SDS011;6522;49.622;6.126;2023-06-04T05:37:02;19.23;;;18.33;;
12908;SDS011;6522;49.622;6.126;2023-06-04T05:39:49;18.70;;;17.70;;
12908;SDS011;6522;49.622;6.126;2023-06-04T05:42:35;18.37;;;17.40;;
12908;SDS011;6522;49.622;6.126;2023-06-04T05:45:23;19.05;;;17.87;;
12908;SDS011;6522;49.622;6.126;2023-06-04T05:48:10;19.25;;;18.35;;
12908;SDS011;6522;49.622;6.126;2023-06-04T05:50:56;18.73;;;17.92;;
12908;SDS011;6522;49.622;6.126;2023-06-04T05:53:43;18.80;;;17.90;;
12908;SDS011;6522;49.622;6.126;2023-06-04T05:56:30;19.90;;;18.67;;
12908;SDS011;6522;49.622;6.126;2023-06-04T05:59:17;18.15;;;17.30;;
12908;SDS011;6522;49.622;6.126;2023-06-04T06:02:04;18.23;;;17.27;;
12908;SDS011;6522;49.622;6.126;2023-06-04T06:04:51;18.90;;;18.00;;
12908;SDS011;6522;49.622;6.126;2023-06-04T06:07:37;19.00;;;18.10;;
12908;SDS011;6522;49.622;6.126;2023-06-04T06:10:24;19.05;;;18.00;;
12908;SDS011;6522;49.622;6.126;2023-06-04T06:13:11;18.80;;;17.90;;
12908;SDS011;6522;49.622;6.126;2023-06-04T06:15:58;18.90;;;17.70;;
12908;SDS011;6522;49.622;6.126;2023-06-04T06:18:44;18.85;;;17.95;;
12908;SDS011;6522;49.622;6.126;2023-06-04T06:21:31;19.10;;;18.20;;
12908;SDS011;6522;49.622;6.126;2023-06-04T06:24:18;18.98;;;17.87;;
12908;SDS011;6522;49.622;6.126;2023-06-04T06:27:05;18.30;;;17.40;;
12908;SDS011;6522;49.622;6.126;2023-06-04T06:29:51;19.87;;;18.50;;
12908;SDS011;6522;49.622;6.126;2023-06-04T06:32:38;19.25;;;18.25;;
12908;SDS011;6522;49.622;6.126;2023-06-04T06:35:25;18.52;;;17.62;;
12908;SDS011;6522;49.622;6.126;2023-06-04T06:38:12;20.27;;;19.05;;
12908;SDS011;6522;49.622;6.126;2023-06-04T06:40:59;19.40;;;18.40;;
12908;SDS011;6522;49.622;6.126;2023-06-04T06:43:46;16.50;;;15.60;;
12908;SDS011;6522;49.622;6.126;2023-06-04T06:46:33;20.02;;;18.73;;
12908;SDS011;6522;49.622;6.126;2023-06-04T06:49:20;16.60;;;15.70;;
12908;SDS011;6522;49.622;6.126;2023-06-04T06:52:06;16.60;;;15.70;;
12908;SDS011;6522;49.622;6.126;2023-06-04T06:54:54;18.37;;;17.50;;
12908;SDS011;6522;49.622;6.126;2023-06-04T06:57:41;17.20;;;16.30;;
12908;SDS011;6522;49.622;6.126;2023-06-04T07:00:27;16.60;;;15.70;;
12908;SDS011;6522;49.622;6.126;2023-06-04T07:03:14;18.40;;;17.60;;
12908;SDS011;6522;49.622;6.126;2023-06-04T07:06:01;17.45;;;16.55;;
12908;SDS011;6522;49.622;6.126;2023-06-04T07:08:48;16.62;;;15.63;;
12908;SDS011;6522;49.622;6.126;2023-06-04T07:11:35;19.20;;;18.00;;
12908;SDS011;6522;49.622;6.126;2023-06-04T07:14:21;17.40;;;16.20;;
12908;SDS011;6522;49.622;6.126;2023-06-04T07:17:08;16.83;;;15.82;;
12908;SDS011;6522;49.622;6.126;2023-06-04T07:19:55;18.20;;;17.40;;
12908;SDS011;6522;49.622;6.126;2023-06-04T07:22:42;16.75;;;15.75;;
12908;SDS011;6522;49.622;6.126;2023-06-04T07:25:29;16.70;;;15.90;;
12908;SDS011;6522;49.622;6.126;2023-06-04T07:28:16;18.50;;;17.70;;
12908;SDS011;6522;49.622;6.126;2023-06-04T07:31:03;16.70;;;15.70;;
12908;SDS011;6522;49.622;6.126;2023-06-04T07:33:50;18.77;;;17.77;;
12908;SDS011;6522;49.622;6.126;2023-06-04T07:36:37;16.40;;;15.50;;
12908;SDS011;6522;49.622;6.126;2023-06-04T07:39:24;16.48;;;15.57;;
12908;SDS011;6522;49.622;6.126;2023-06-04T07:42:11;19.10;;;18.10;;
12908;SDS011;6522;49.622;6.126;2023-06-04T07:44:57;16.50;;;15.50;;
12908;SDS011;6522;49.622;6.126;2023-06-04T07:47:44;16.33;;;15.43;;
12908;SDS011;6522;49.622;6.126;2023-06-04T07:50:30;19.30;;;18.30;;
12908;SDS011;6522;49.622;6.126;2023-06-04T07:53:17;16.93;;;15.90;;
12908;SDS011;6522;49.622;6.126;2023-06-04T07:56:05;16.40;;;15.60;;
12908;SDS011;6522;49.622;6.126;2023-06-04T07:58:51;18.90;;;18.00;;
12908;SDS011;6522;49.622;6.126;2023-06-04T08:01:38;17.08;;;16.17;;
12908;SDS011;6522;49.622;6.126;2023-06-04T08:04:25;19.80;;;18.60;;
12908;SDS011;6522;49.622;6.126;2023-06-04T08:07:12;17.23;;;15.93;;
12908;SDS011;6522;49.622;6.126;2023-06-04T08:09:58;19.43;;;18.43;;
12908;SDS011;6522;49.622;6.126;2023-06-04T08:12:45;16.90;;;16.00;;
12908;SDS011;6522;49.622;6.126;2023-06-04T08:15:32;18.20;;;17.40;;
12908;SDS011;6522;49.622;6.126;2023-06-04T08:18:18;19.37;;;18.43;;
12908;SDS011;6522;49.622;6.126;2023-06-04T08:21:05;19.77;;;18.77;;
12908;SDS011;6522;49.622;6.126;2023-06-04T08:23:52;19.00;;;18.00;;
12908;SDS011;6522;49.622;6.126;2023-06-04T08:26:38;18.97;;;17.97;;
12908;SDS011;6522;49.622;6.126;2023-06-04T08:29:25;19.23;;;18.33;;
12908;SDS011;6522;49.622;6.126;2023-06-04T08:32:12;18.43;;;17.53;;
12908;SDS011;6522;49.622;6.126;2023-06-04T08:34:58;18.70;;;17.60;;
12908;SDS011;6522;49.622;6.126;2023-06-04T08:37:45;19.40;;;18.20;;
12908;SDS011;6522;49.622;6.126;2023-06-04T08:40:32;17.70;;;16.50;;
12908;SDS011;6522;49.622;6.126;2023-06-04T08:43:19;19.17;;;18.20;;
12908;SDS011;6522;49.622;6.126;2023-06-04T08:46:06;19.53;;;18.63;;
12908;SDS011;6522;49.622;6.126;2023-06-04T08:48:52;19.70;;;18.70;;
12908;SDS011;6522;49.622;6.126;2023-06-04T08:51:40;20.23;;;18.97;;
12908;SDS011;6522;49.622;6.126;2023-06-04T08:54:26;19.43;;;18.53;;
12908;SDS011;6522;49.622;6.126;2023-06-04T08:57:13;19.40;;;18.50;;
12908;SDS011;6522;49.622;6.126;2023-06-04T09:00:00;19.80;;;18.70;;
12908;SDS011;6522;49.622;6.126;2023-06-04T09:02:47;17.70;;;16.90;;
12908;SDS011;6522;49.622;6.126;2023-06-04T09:05:33;18.60;;;17.60;;
12908;SDS011;6522;49.622;6.126;2023-06-04T09:08:20;19.03;;;18.03;;
12908;SDS011;6522;49.622;6.126;2023-06-04T09:11:07;18.40;;;17.40;;
12908;SDS011;6522;49.622;6.126;2023-06-04T09:13:53;18.60;;;17.70;;
12908;SDS011;6522;49.622;6.126;2023-06-04T09:16:44;19.27;;;18.27;;
12908;SDS011;6522;49.622;6.126;2023-06-04T09:19:30;18.50;;;17.60;;
12908;SDS011;6522;49.622;6.126;2023-06-04T09:22:17;17.93;;;17.13;;
12908;SDS011;6522;49.622;6.126;2023-06-04T09:25:05;19.30;;;17.60;;
12908;SDS011;6522;49.622;6.126;2023-06-04T09:27:50;18.03;;;17.03;;
12908;SDS011;6522;49.622;6.126;2023-06-04T09:30:37;17.63;;;16.83;;
12908;SDS011;6522;49.622;6.126;2023-06-04T09:33:23;15.23;;;14.43;;
12908;SDS011;6522;49.622;6.126;2023-06-04T09:36:10;15.40;;;14.60;;
12908;SDS011;6522;49.622;6.126;2023-06-04T09:38:57;17.50;;;16.70;;
12908;SDS011;6522;49.622;6.126;2023-06-04T09:41:43;18.40;;;16.80;;
12908;SDS011;6522;49.622;6.126;2023-06-04T09:44:30;16.63;;;15.90;;
12908;SDS011;6522;49.622;6.126;2023-06-04T09:47:16;17.27;;;16.40;;
12908;SDS011;6522;49.622;6.126;2023-06-04T09:50:03;17.40;;;16.60;;
12908;SDS011;6522;49.622;6.126;2023-06-04T09:52:50;15.63;;;14.77;;
12908;SDS011;6522;49.622;6.126;2023-06-04T09:55:37;17.20;;;16.23;;
12908;SDS011;6522;49.622;6.126;2023-06-04T09:58:27;15.40;;;14.60;;
12908;SDS011;6522;49.622;6.126;2023-06-04T10:01:10;16.90;;;16.00;;
12908;SDS011;6522;49.622;6.126;2023-06-04T10:04:02;16.93;;;16.13;;
12908;SDS011;6522;49.622;6.126;2023-06-04T10:06:47;16.70;;;15.97;;
12908;SDS011;6522;49.622;6.126;2023-06-04T10:09:33;16.80;;;16.00;;
12908;SDS011;6522;49.622;6.126;2023-06-04T10:12:23;14.98;;;14.27;;
12908;SDS011;6522;49.622;6.126;2023-06-04T10:15:08;16.23;;;15.37;;
12908;SDS011;6522;49.622;6.126;2023-06-04T10:17:54;16.80;;;15.60;;
12908;SDS011;6522;49.622;6.126;2023-06-04T10:20:41;16.83;;;16.03;;
12908;SDS011;6522;49.622;6.126;2023-06-04T10:23:28;16.73;;;15.97;;
12908;SDS011;6522;49.622;6.126;2023-06-04T10:26:15;17.43;;;16.30;;
12908;SDS011;6522;49.622;6.126;2023-06-04T10:29:02;17.00;;;16.10;;
12908;SDS011;6522;49.622;6.126;2023-06-04T10:31:53;17.07;;;16.27;;
12908;SDS011;6522;49.622;6.126;2023-06-04T10:34:35;17.73;;;16.93;;
12908;SDS011;6522;49.622;6.126;2023-06-04T10:37:22;16.97;;;16.17;;
12908;SDS011;6522;49.622;6.126;2023-06-04T10:40:09;16.93;;;16.13;;
12908;SDS011;6522;49.622;6.126;2023-06-04T10:42:56;14.70;;;14.00;;
12908;SDS011;6522;49.622;6.126;2023-06-04T10:45:42;16.57;;;15.83;;
12908;SDS011;6522;49.622;6.126;2023-06-04T10:48:29;16.30;;;15.50;;
12908;SDS011;6522;49.622;6.126;2023-06-04T10:51:16;16.90;;;16.00;;
12908;SDS011;6522;49.622;6.126;2023-06-04T10:54:03;16.33;;;15.63;;
12908;SDS011;6522;49.622;6.126;2023-06-04T10:56:50;16.73;;;15.93;;
12908;SDS011;6522;49.622;6.126;2023-06-04T10:59:37;18.10;;;16.27;;
12908;SDS011;6522;49.622;6.126;2023-06-04T11:02:24;17.00;;;16.00;;
12908;SDS011;6522;49.622;6.126;2023-06-04T11:05:10;16.57;;;15.77;;
12908;SDS011;6522;49.622;6.126;2023-06-04T11:07:57;16.40;;;15.60;;
12908;SDS011;6522;49.622;6.126;2023-06-04T11:10:44;16.90;;;15.87;;
12908;SDS011;6522;49.622;6.126;2023-06-04T11:13:30;17.00;;;16.03;;
12908;SDS011;6522;49.622;6.126;2023-06-04T11:16:17;16.37;;;15.57;;
12908;SDS011;6522;49.622;6.126;2023-06-04T11:19:03;16.20;;;15.40;;
12908;SDS011;6522;49.622;6.126;2023-06-04T11:21:50;16.67;;;15.63;;
12908;SDS011;6522;49.622;6.126;2023-06-04T11:24:36;15.40;;;14.70;;
12908;SDS011;6522;49.622;6.126;2023-06-04T11:27:23;16.10;;;15.30;;
12908;SDS011;6522;49.622;6.126;2023-06-04T11:30:10;16.30;;;15.20;;
12908;SDS011;6522;49.622;6.126;2023-06-04T11:33:03;15.90;;;15.07;;
12908;SDS011;6522;49.622;6.126;2023-06-04T11:35:49;16.30;;;15.60;;
12908;SDS011;6522;49.622;6.126;2023-06-04T11:38:36;17.47;;;16.30;;
12908;SDS011;6522;49.622;6.126;2023-06-04T11:41:22;16.53;;;15.73;;
12908;SDS011;6522;49.622;6.126;2023-06-04T11:44:09;16.30;;;15.40;;
12908;SDS011;6522;49.622;6.126;2023-06-04T11:46:56;16.53;;;15.63;;
12908;SDS011;6522;49.622;6.126;2023-06-04T11:49:43;16.60;;;15.80;;
12908;SDS011;6522;49.622;6.126;2023-06-04T11:52:29;17.00;;;16.07;;
12908;SDS011;6522;49.622;6.126;2023-06-04T11:55:16;16.40;;;15.60;;
12908;SDS011;6522;49.622;6.126;2023-06-04T11:58:09;15.90;;;15.10;;
12908;SDS011;6522;49.622;6.126;2023-06-04T12:00:55;16.27;;;15.27;;
12908;SDS011;6522;49.622;6.126;2023-06-04T12:03:42;14.70;;;13.60;;
12908;SDS011;6522;49.622;6.126;2023-06-04T12:06:29;16.10;;;15.30;;
12908;SDS011;6522;49.622;6.126;2023-06-04T12:09:22;16.30;;;15.20;;
12908;SDS011;6522;49.622;6.126;2023-06-04T12:12:08;15.67;;;14.87;;
12908;SDS011;6522;49.622;6.126;2023-06-04T12:14:58;16.30;;;15.43;;
12908;SDS011;6522;49.622;6.126;2023-06-04T12:17:51;16.33;;;15.33;;
12908;SDS011;6522;49.622;6.126;2023-06-04T12:20:38;16.03;;;15.13;;
12908;SDS011;6522;49.622;6.126;2023-06-04T12:23:24;15.90;;;15.10;;
12908;SDS011;6522;49.622;6.126;2023-06-04T12:26:23;16.03;;;15.23;;
12908;SDS011;6522;49.622;6.126;2023-06-04T12:29:08;16.83;;;15.83;;
12908;SDS011;6522;49.622;6.126;2023-06-04T12:32:01;13.60;;;12.80;;
12908;SDS011;6522;49.622;6.126;2023-06-04T12:34:41;13.48;;;12.77;;
12908;SDS011;6522;49.622;6.126;2023-06-04T12:37:28;16.50;;;15.60;;
12908;SDS011;6522;49.622;6.126;2023-06-04T12:40:14;16.67;;;15.30;;
12908;SDS011;6522;49.622;6.126;2023-06-04T12:43:01;16.60;;;15.80;;
12908;SDS011;6522;49.622;6.126;2023-06-04T12:45:48;15.60;;;14.60;;
12908;SDS011;6522;49.622;6.126;2023-06-04T12:48:34;16.13;;;15.00;;
12908;SDS011;6522;49.622;6.126;2023-06-04T12:51:21;15.73;;;14.93;;
12908;SDS011;6522;49.622;6.126;2023-06-04T12:54:09;16.37;;;15.40;;
12908;SDS011;6522;49.622;6.126;2023-06-04T12:56:55;15.70;;;15.00;;
12908;SDS011;6522;49.622;6.126;2023-06-04T12:59:44;16.50;;;15.60;;
12908;SDS011;6522;49.622;6.126;2023-06-04T13:02:31;16.30;;;15.50;;
12908;SDS011;6522;49.622;6.126;2023-06-04T13:05:18;17.43;;;16.50;;
12908;SDS011;6522;49.622;6.126;2023-06-04T13:08:04;16.53;;;15.73;;
12908;SDS011;6522;49.622;6.126;2023-06-04T13:10:51;15.57;;;14.80;;
12908;SDS011;6522;49.622;6.126;2023-06-04T13:13:38;16.30;;;15.40;;
12908;SDS011;6522;49.622;6.126;2023-06-04T13:16:25;14.38;;;13.48;;
12908;SDS011;6522;49.622;6.126;2023-06-04T13:19:12;14.27;;;13.30;;
12908;SDS011;6522;49.622;6.126;2023-06-04T13:21:59;16.87;;;15.97;;
12908;SDS011;6522;49.622;6.126;2023-06-04T13:24:45;16.53;;;15.80;;
12908;SDS011;6522;49.622;6.126;2023-06-04T13:27:32;16.40;;;15.57;;
12908;SDS011;6522;49.622;6.126;2023-06-04T13:30:19;17.80;;;16.90;;
12908;SDS011;6522;49.622;6.126;2023-06-04T13:33:06;17.20;;;16.30;;
12908;SDS011;6522;49.622;6.126;2023-06-04T13:35:52;17.07;;;16.07;;
12908;SDS011;6522;49.622;6.126;2023-06-04T13:38:39;17.20;;;16.30;;
12908;SDS011;6522;49.622;6.126;2023-06-04T13:41:26;16.27;;;15.50;;
12908;SDS011;6522;49.622;6.126;2023-06-04T13:44:13;16.90;;;16.10;;
12908;SDS011;6522;49.622;6.126;2023-06-04T13:46:59;16.90;;;16.00;;
12908;SDS011;6522;49.622;6.126;2023-06-04T13:49:46;17.23;;;16.30;;
12908;SDS011;6522;49.622;6.126;2023-06-04T13:52:33;17.20;;;16.20;;
12908;SDS011;6522;49.622;6.126;2023-06-04T13:55:20;17.20;;;16.10;;
12908;SDS011;6522;49.622;6.126;2023-06-04T13:58:07;17.37;;;16.53;;
12908;SDS011;6522;49.622;6.126;2023-06-04T14:00:54;17.90;;;16.90;;
12908;SDS011;6522;49.622;6.126;2023-06-04T14:03:40;16.20;;;14.90;;
12908;SDS011;6522;49.622;6.126;2023-06-04T14:06:27;17.80;;;16.80;;
12908;SDS011;6522;49.622;6.126;2023-06-04T14:09:14;15.40;;;14.60;;
12908;SDS011;6522;49.622;6.126;2023-06-04T14:12:01;17.07;;;16.17;;
12908;SDS011;6522;49.622;6.126;2023-06-04T14:14:47;18.10;;;17.10;;
12908;SDS011;6522;49.622;6.126;2023-06-04T14:17:34;17.60;;;16.80;;
12908;SDS011;6522;49.622;6.126;2023-06-04T14:20:20;18.77;;;17.73;;
12908;SDS011;6522;49.622;6.126;2023-06-04T14:23:07;18.50;;;17.40;;
12908;SDS011;6522;49.622;6.126;2023-06-04T14:25:53;16.23;;;15.32;;
12908;SDS011;6522;49.622;6.126;2023-06-04T14:28:40;19.03;;;17.83;;
12908;SDS011;6522;49.622;6.126;2023-06-04T14:31:27;18.73;;;17.73;;
12908;SDS011;6522;49.622;6.126;2023-06-04T14:34:14;20.57;;;18.83;;
12908;SDS011;6522;49.622;6.126;2023-06-04T14:37:01;20.33;;;18.30;;
12908;SDS011;6522;49.622;6.126;2023-06-04T14:39:48;18.40;;;17.50;;
12908;SDS011;6522;49.622;6.126;2023-06-04T14:42:35;18.20;;;17.30;;
12908;SDS011;6522;49.622;6.126;2023-06-04T14:45:22;19.00;;;18.00;;
12908;SDS011;6522;49.622;6.126;2023-06-04T14:48:09;19.00;;;17.97;;
12908;SDS011;6522;49.622;6.126;2023-06-04T14:50:56;19.13;;;18.20;;
12908;SDS011;6522;49.622;6.126;2023-06-04T14:53:42;19.83;;;18.83;;
12908;SDS011;6522;49.622;6.126;2023-06-04T14:56:29;19.10;;;18.10;;
12908;SDS011;6522;49.622;6.126;2023-06-04T14:59:16;19.43;;;18.33;;
12908;SDS011;6522;49.622;6.126;2023-06-04T15:02:03;19.10;;;18.00;;
12908;SDS011;6522;49.622;6.126;2023-06-04T15:04:49;18.83;;;17.93;;
12908;SDS011;6522;49.622;6.126;2023-06-04T15:07:36;19.80;;;18.80;;
12908;SDS011;6522;49.622;6.126;2023-06-04T15:10:24;19.87;;;18.87;;
12908;SDS011;6522;49.622;6.126;2023-06-04T15:13:10;19.63;;;18.40;;
12908;SDS011;6522;49.622;6.126;2023-06-04T15:15:57;20.43;;;19.07;;
12908;SDS011;6522;49.622;6.126;2023-06-04T15:18:43;19.57;;;18.57;;
12908;SDS011;6522;49.622;6.126;2023-06-04T15:21:30;18.70;;;17.80;;
12908;SDS011;6522;49.622;6.126;2023-06-04T15:24:18;19.80;;;18.60;;
12908;SDS011;6522;49.622;6.126;2023-06-04T15:27:04;19.30;;;18.30;;
12908;SDS011;6522;49.622;6.126;2023-06-04T15:29:51;19.37;;;18.47;;
12908;SDS011;6522;49.622;6.126;2023-06-04T15:32:38;19.20;;;18.30;;
12908;SDS011;6522;49.622;6.126;2023-06-04T15:35:25;20.67;;;19.40;;
12908;SDS011;6522;49.622;6.126;2023-06-04T15:38:12;19.77;;;18.77;;
12908;SDS011;6522;49.622;6.126;2023-06-04T15:40:59;19.70;;;18.47;;
12908;SDS011;6522;49.622;6.126;2023-06-04T15:43:46;18.60;;;17.70;;
12908;SDS011;6522;49.622;6.126;2023-06-04T15:46:32;19.50;;;18.50;;
12908;SDS011;6522;49.622;6.126;2023-06-04T15:49:19;20.40;;;19.33;;
12908;SDS011;6522;49.622;6.126;2023-06-04T15:52:06;19.97;;;19.00;;
12908;SDS011;6522;49.622;6.126;2023-06-04T15:54:53;19.97;;;19.03;;
12908;SDS011;6522;49.622;6.126;2023-06-04T15:57:40;20.60;;;19.60;;
12908;SDS011;6522;49.622;6.126;2023-06-04T16:00:27;21.00;;;19.60;;
12908;SDS011;6522;49.622;6.126;2023-06-04T16:03:13;20.10;;;19.13;;
12908;SDS011;6522;49.622;6.126;2023-06-04T16:06:00;21.83;;;20.30;;
12908;SDS011;6522;49.622;6.126;2023-06-04T16:08:47;19.90;;;19.00;;
12908;SDS011;6522;49.622;6.126;2023-06-04T16:11:33;20.50;;;19.50;;
12908;SDS011;6522;49.622;6.126;2023-06-04T16:14:23;19.93;;;18.83;;
12908;SDS011;6522;49.622;6.126;2023-06-04T16:17:10;19.87;;;18.87;;
12908;SDS011;6522;49.622;6.126;2023-06-04T16:19:56;19.90;;;19.00;;
12908;SDS011;6522;49.622;6.126;2023-06-04T16:22:43;20.73;;;19.73;;
12908;SDS011;6522;49.622;6.126;2023-06-04T16:25:30;19.53;;;18.53;;
12908;SDS011;6522;49.622;6.126;2023-06-04T16:28:16;20.20;;;19.10;;